Time;durP1;ratioP1;P1;durP2;ratioP2;P2;SDS_P1;SDS_P2;PMS_P1;PMS_P2;Temp;Humidity;BMP_temperature;BMP_pressure;BME280_temperature;BME280_humidity;BME280_pressure;Samples;Min_cycle;Max_cycle;Signal;HPM_P1;HPM_P2
2023/10/26 00:01:33;;;;;;;12.30;7.13;;;11.40;99.90;;;;;;5071245;28;20078;-79
2023/10/26 00:03:59;;;;;;;12.77;6.60;;;11.40;99.90;;;;;;5071054;28;20036;-80
2023/10/26 00:06:25;;;;;;;13.13;6.93;;;11.40;99.90;;;;;;5053596;28;20024;-80
2023/10/26 00:08:51;;;;;;;10.32;6.95;;;11.40;99.90;;;;;;5070913;28;20032;-79
2023/10/26 00:11:16;;;;;;;12.60;6.43;;;11.40;99.90;;;;;;5070193;28;20162;-81
2023/10/26 00:13:42;;;;;;;13.43;6.35;;;11.40;99.90;;;;;;5072018;28;20107;-79
2023/10/26 00:16:08;;;;;;;11.27;5.63;;;11.40;99.90;;;;;;5070649;28;20106;-79
2023/10/26 00:18:34;;;;;;;10.30;5.88;;;11.40;99.90;;;;;;5071811;28;20493;-79
2023/10/26 00:21:00;;;;;;;8.85;5.53;;;11.40;99.90;;;;;;5072607;28;20063;-79
2023/10/26 00:23:26;;;;;;;11.02;4.70;;;11.40;99.90;;;;;;5075041;28;20029;-78
2023/10/26 00:25:53;;;;;;;5.07;3.78;;;11.40;99.90;;;;;;5075803;28;20058;-79
2023/10/26 00:28:19;;;;;;;5.47;3.65;;;11.40;99.90;;;;;;5070465;28;20029;-80
2023/10/26 00:30:45;;;;;;;4.68;2.97;;;11.40;99.90;;;;;;5071082;28;20058;-80
2023/10/26 00:33:11;;;;;;;4.03;2.90;;;11.40;99.90;;;;;;5052313;28;20408;-80
2023/10/26 00:35:36;;;;;;;2.97;2.17;;;11.40;99.90;;;;;;5070298;28;20405;-79
2023/10/26 00:38:02;;;;;;;4.18;2.55;;;11.30;99.90;;;;;;5052750;28;20054;-80
2023/10/26 00:40:28;;;;;;;2.00;1.80;;;11.40;99.90;;;;;;5074611;28;20062;-79
2023/10/26 00:43:00;;;;;;;3.00;1.77;;;11.30;99.90;;;;;;5072483;28;20073;-79
2023/10/26 00:45:30;;;;;;;4.00;2.00;;;11.30;99.90;;;;;;5071245;28;20032;-79
2023/10/26 00:47:57;;;;;;;2.80;1.88;;;11.30;99.90;;;;;;5071120;28;20021;-79
2023/10/26 00:50:23;;;;;;;3.50;1.70;;;11.20;99.90;;;;;;5070534;28;20061;-79
2023/10/26 00:52:49;;;;;;;2.85;2.13;;;11.20;99.90;;;;;;5070616;28;20073;-79
2023/10/26 00:55:16;;;;;;;3.35;1.90;;;11.10;99.90;;;;;;5051909;28;20073;-79
2023/10/26 00:57:42;;;;;;;2.03;1.70;;;11.10;99.90;;;;;;5070543;28;20055;-79
2023/10/26 01:00:09;;;;;;;1.63;1.52;;;11.10;99.90;;;;;;5069837;28;20073;-79
2023/10/26 01:02:36;;;;;;;3.95;1.77;;;11.00;99.90;;;;;;5070626;28;20055;-80
2023/10/26 01:05:03;;;;;;;2.45;1.63;;;11.10;99.90;;;;;;5069776;28;20032;-80
2023/10/26 01:07:29;;;;;;;2.05;1.60;;;11.00;99.90;;;;;;5070106;28;20033;-80
2023/10/26 01:09:55;;;;;;;1.85;1.70;;;11.00;99.90;;;;;;5070748;28;20032;-80
2023/10/26 01:12:21;;;;;;;2.55;1.75;;;11.00;99.90;;;;;;5069060;28;20526;-81
2023/10/26 01:14:47;;;;;;;2.90;1.80;;;11.00;99.90;;;;;;5070567;28;20025;-79
2023/10/26 01:17:13;;;;;;;2.45;2.15;;;11.00;99.90;;;;;;5069819;28;20036;-80
2023/10/26 01:19:43;;;;;;;2.35;1.60;;;11.00;99.90;;;;;;5070500;28;20156;-79
2023/10/26 01:22:10;;;;;;;3.45;2.10;;;11.00;99.90;;;;;;5069641;28;20063;-79
2023/10/26 01:24:36;;;;;;;2.60;1.75;;;11.00;99.90;;;;;;5069995;28;20024;-80
2023/10/26 01:27:03;;;;;;;4.65;2.17;;;11.00;99.90;;;;;;5069636;28;20035;-81
2023/10/26 01:29:28;;;;;;;2.40;1.80;;;11.00;99.90;;;;;;5070362;28;20098;-80
2023/10/26 01:31:54;;;;;;;4.00;2.20;;;10.90;99.90;;;;;;5071101;28;20463;-79
2023/10/26 01:34:20;;;;;;;2.00;1.80;;;10.80;99.90;;;;;;5055219;28;20082;-79
2023/10/26 01:36:46;;;;;;;2.50;2.00;;;10.90;99.90;;;;;;5053363;28;20115;-79
2023/10/26 01:39:13;;;;;;;6.25;2.72;;;10.80;99.90;;;;;;5072482;28;20039;-79
2023/10/26 01:41:39;;;;;;;3.25;1.98;;;10.80;99.90;;;;;;5071949;28;20440;-80
2023/10/26 01:44:05;;;;;;;4.47;1.98;;;10.80;99.90;;;;;;5072552;28;20035;-80
2023/10/26 01:46:30;;;;;;;3.28;2.10;;;10.80;99.90;;;;;;5073547;28;20072;-78
2023/10/26 01:48:56;;;;;;;2.10;1.52;;;10.80;99.90;;;;;;5072970;28;20031;-78
2023/10/26 01:51:22;;;;;;;3.10;1.73;;;10.80;99.90;;;;;;5074217;28;20021;-79
2023/10/26 01:53:47;;;;;;;2.67;1.45;;;10.80;99.90;;;;;;5075949;28;20463;-78
2023/10/26 01:56:13;;;;;;;2.25;1.80;;;10.90;99.90;;;;;;5073659;28;20021;-78
2023/10/26 01:58:39;;;;;;;1.60;1.38;;;10.90;99.90;;;;;;5057869;28;20057;-78
2023/10/26 02:01:05;;;;;;;3.55;1.75;;;10.90;99.90;;;;;;5072659;28;20098;-79
2023/10/26 02:03:31;;;;;;;4.50;1.85;;;10.90;99.90;;;;;;5073053;28;20480;-78
2023/10/26 02:05:57;;;;;;;2.80;1.58;;;10.90;99.90;;;;;;5074060;28;20027;-78
2023/10/26 02:08:22;;;;;;;1.98;1.50;;;10.80;99.90;;;;;;5072485;28;20179;-78
2023/10/26 02:10:48;;;;;;;3.28;1.30;;;10.80;99.90;;;;;;5072829;28;20026;-79
2023/10/26 02:13:14;;;;;;;3.85;1.40;;;10.70;99.90;;;;;;5073284;28;20037;-78
2023/10/26 02:15:39;;;;;;;2.10;1.20;;;10.70;99.90;;;;;;5084678;28;20129;-78
2023/10/26 02:18:05;;;;;;;4.35;1.80;;;10.70;99.90;;;;;;5072072;28;20073;-80
2023/10/26 02:20:31;;;;;;;2.65;1.42;;;10.60;99.90;;;;;;5073263;28;20047;-79
2023/10/26 02:22:56;;;;;;;3.10;2.08;;;10.60;99.90;;;;;;5073624;28;20033;-79
2023/10/26 02:25:22;;;;;;;4.10;2.25;;;10.50;99.90;;;;;;5073101;28;20416;-80
2023/10/26 02:27:48;;;;;;;4.40;2.40;;;10.40;99.90;;;;;;5075183;28;20038;-79
2023/10/26 02:30:14;;;;;;;2.83;2.25;;;10.40;99.90;;;;;;5073554;28;20087;-80
2023/10/26 02:32:40;;;;;;;4.82;2.70;;;10.30;99.90;;;;;;5073073;28;20032;-78
2023/10/26 02:35:06;;;;;;;5.13;2.65;;;10.30;99.90;;;;;;5076661;28;20021;-80
2023/10/26 02:37:38;;;;;;;4.25;3.10;;;10.30;99.90;;;;;;5054962;28;20031;-79
2023/10/26 02:40:08;;;;;;;4.10;2.17;;;10.30;99.90;;;;;;5072150;28;20431;-80
2023/10/26 02:42:35;;;;;;;3.38;2.25;;;10.20;99.90;;;;;;5072225;28;20064;-79
2023/10/26 02:45:03;;;;;;;2.63;2.17;;;10.20;99.90;;;;;;5041560;28;20031;-79
2023/10/26 02:47:29;;;;;;;3.42;2.45;;;10.10;99.90;;;;;;5071608;28;20432;-79
2023/10/26 02:49:55;;;;;;;5.68;2.60;;;10.10;99.90;;;;;;5071899;28;20024;-79
2023/10/26 02:52:20;;;;;;;2.63;2.42;;;10.10;99.90;;;;;;5036652;28;20029;-80
2023/10/26 02:54:46;;;;;;;4.90;2.35;;;10.10;99.90;;;;;;5071774;28;20028;-79
2023/10/26 02:57:14;;;;;;;3.00;2.20;;;10.10;99.90;;;;;;5069721;28;20407;-79
2023/10/26 02:59:40;;;;;;;3.63;2.40;;;10.00;99.90;;;;;;5071813;28;20039;-79
2023/10/26 03:02:06;;;;;;;3.92;2.17;;;10.10;99.90;;;;;;5071752;28;20024;-80
2023/10/26 03:04:35;;;;;;;4.53;2.40;;;10.10;99.90;;;;;;5072274;28;20110;-79
2023/10/26 03:07:01;;;;;;;5.38;3.03;;;10.10;99.90;;;;;;5071720;28;20020;-79
2023/10/26 03:09:30;;;;;;;3.63;2.40;;;10.00;99.90;;;;;;5071169;28;20140;-79
2023/10/26 03:11:55;;;;;;;2.47;1.73;;;10.00;99.90;;;;;;5071217;28;20056;-79
2023/10/26 03:14:21;;;;;;;5.68;2.28;;;10.00;99.90;;;;;;5070836;28;20400;-80
2023/10/26 03:16:48;;;;;;;2.38;1.75;;;10.00;99.90;;;;;;5071524;28;20556;-79
2023/10/26 03:19:14;;;;;;;2.92;1.98;;;9.90;99.90;;;;;;5070803;28;20036;-79
2023/10/26 03:21:40;;;;;;;3.05;1.98;;;9.80;99.90;;;;;;5071217;28;20029;-79
2023/10/26 03:24:06;;;;;;;5.68;1.95;;;9.80;99.90;;;;;;5071392;28;20032;-79
2023/10/26 03:26:32;;;;;;;3.92;2.47;;;9.70;99.90;;;;;;5070833;28;20039;-79
2023/10/26 03:28:57;;;;;;;3.20;2.13;;;9.70;99.90;;;;;;5071336;28;20032;-78
2023/10/26 03:31:23;;;;;;;2.00;1.80;;;9.60;99.90;;;;;;5070055;28;20024;-78
2023/10/26 03:33:49;;;;;;;4.35;2.13;;;9.60;99.90;;;;;;5052837;28;20459;-78
2023/10/26 03:36:19;;;;;;;10.60;2.45;;;9.50;99.90;;;;;;5052922;28;20125;-78
2023/10/26 03:38:46;;;;;;;3.10;2.08;;;9.50;99.90;;;;;;5071295;28;20059;-78
2023/10/26 03:41:12;;;;;;;3.75;1.92;;;9.40;99.90;;;;;;5071193;28;20047;-78
2023/10/26 03:43:38;;;;;;;4.65;2.13;;;9.30;99.90;;;;;;5054043;28;20028;-79
2023/10/26 03:46:05;;;;;;;4.70;2.42;;;9.30;99.90;;;;;;5074635;28;20139;-78
2023/10/26 03:48:35;;;;;;;2.92;1.90;;;9.20;99.90;;;;;;5074931;28;20120;-80
2023/10/26 03:51:01;;;;;;;3.78;1.73;;;9.20;99.90;;;;;;5053126;28;20140;-79
2023/10/26 03:53:28;;;;;;;3.40;1.80;;;9.20;99.90;;;;;;5071169;28;20142;-79
2023/10/26 03:55:54;;;;;;;4.55;1.90;;;9.10;99.90;;;;;;5086242;28;20035;-78
2023/10/26 03:58:20;;;;;;;3.40;1.75;;;9.10;99.90;;;;;;5087559;28;20122;-78
2023/10/26 04:00:47;;;;;;;5.53;2.40;;;9.10;99.90;;;;;;5076319;28;20077;-79
2023/10/26 04:03:13;;;;;;;2.33;2.08;;;9.10;99.90;;;;;;5052012;28;20029;-80
2023/10/26 04:05:39;;;;;;;3.65;2.17;;;9.10;99.90;;;;;;5052708;28;20024;-79
2023/10/26 04:08:05;;;;;;;2.08;1.67;;;9.10;99.90;;;;;;5070382;28;20432;-79
2023/10/26 04:10:31;;;;;;;2.03;1.50;;;9.00;99.90;;;;;;5070527;28;20176;-79
2023/10/26 04:12:57;;;;;;;5.85;2.05;;;9.00;99.90;;;;;;5070332;28;20439;-79
2023/10/26 04:15:23;;;;;;;2.97;1.40;;;8.90;99.90;;;;;;5070069;28;20048;-79
2023/10/26 04:17:50;;;;;;;3.35;1.80;;;9.00;99.90;;;;;;5052577;28;20110;-79
2023/10/26 04:20:15;;;;;;;4.00;1.70;;;8.90;99.90;;;;;;5069800;28;20031;-78
2023/10/26 04:22:41;;;;;;;5.78;2.65;;;8.90;99.90;;;;;;5070855;28;20032;-79
2023/10/26 04:25:07;;;;;;;6.22;2.50;;;8.90;99.90;;;;;;5070204;28;20483;-80
2023/10/26 04:27:34;;;;;;;4.95;2.78;;;8.80;99.90;;;;;;5070202;28;20143;-80
2023/10/26 04:29:59;;;;;;;3.65;2.28;;;8.80;99.90;;;;;;5070325;28;20059;-79
2023/10/26 04:32:25;;;;;;;7.60;2.78;;;8.90;99.90;;;;;;5070000;28;20033;-80
2023/10/26 04:34:51;;;;;;;4.22;3.00;;;8.80;99.90;;;;;;5052265;28;20116;-79
2023/10/26 04:37:17;;;;;;;5.35;2.85;;;8.80;99.90;;;;;;5070267;28;20162;-80
2023/10/26 04:39:45;;;;;;;3.47;2.47;;;8.80;99.90;;;;;;5070480;28;20032;-80
2023/10/26 04:42:12;;;;;;;6.97;3.55;;;8.70;99.90;;;;;;5070222;28;20339;-79
2023/10/26 04:44:41;;;;;;;2.08;1.77;;;8.80;99.90;;;;;;5069809;28;20486;-79
2023/10/26 04:47:07;;;;;;;1.90;1.40;;;8.70;99.90;;;;;;5070564;28;20060;-79
2023/10/26 04:49:35;;;;;;;3.47;2.00;;;8.70;99.90;;;;;;5051687;28;20052;-79
2023/10/26 04:52:01;;;;;;;4.40;2.20;;;8.70;99.90;;;;;;5070039;28;20032;-79
2023/10/26 04:54:30;;;;;;;5.82;2.90;;;8.60;99.90;;;;;;5051506;28;20109;-78
2023/10/26 04:56:55;;;;;;;2.15;1.92;;;8.60;99.90;;;;;;5051525;28;20097;-79
2023/10/26 04:59:21;;;;;;;3.50;2.72;;;8.60;99.90;;;;;;5069486;28;20032;-80
2023/10/26 05:01:47;;;;;;;5.78;2.95;;;8.60;99.90;;;;;;5052032;28;20036;-79
2023/10/26 05:04:14;;;;;;;3.63;2.60;;;8.50;99.90;;;;;;5052272;28;20024;-80
2023/10/26 05:06:40;;;;;;;6.13;3.17;;;8.60;99.90;;;;;;5069959;28;20162;-79
2023/10/26 05:09:05;;;;;;;6.50;2.92;;;8.50;99.90;;;;;;5052003;28;20108;-79
2023/10/26 05:11:32;;;;;;;7.28;2.90;;;8.50;99.90;;;;;;5069349;28;20025;-79
2023/10/26 05:13:58;;;;;;;6.50;3.53;;;8.50;99.90;;;;;;5069592;28;20033;-79
2023/10/26 05:16:24;;;;;;;6.45;3.15;;;8.50;99.90;;;;;;5069876;28;20047;-79
2023/10/26 05:18:50;;;;;;;6.15;2.85;;;8.50;99.90;;;;;;5074386;28;20436;-79
2023/10/26 05:21:15;;;;;;;4.88;2.95;;;8.50;99.90;;;;;;5059301;28;20436;-80
2023/10/26 05:23:43;;;;;;;6.68;3.08;;;8.50;99.90;;;;;;5073761;28;20033;-78
2023/10/26 05:26:09;;;;;;;6.03;3.72;;;8.50;99.90;;;;;;5073635;28;20128;-79
2023/10/26 05:28:35;;;;;;;4.78;3.10;;;8.50;99.90;;;;;;5075652;28;20040;-79
2023/10/26 05:31:00;;;;;;;5.22;2.80;;;8.50;99.90;;;;;;5077732;28;20042;-79
2023/10/26 05:33:26;;;;;;;5.88;3.63;;;8.60;99.90;;;;;;5088181;28;20124;-79
2023/10/26 05:35:52;;;;;;;7.68;3.97;;;8.60;99.90;;;;;;5085971;28;20031;-79
2023/10/26 05:38:18;;;;;;;6.43;3.85;;;8.60;99.90;;;;;;5076019;28;20036;-80
2023/10/26 05:40:53;;;;;;;5.85;3.88;;;8.60;99.90;;;;;;5060489;28;20084;-79
2023/10/26 05:43:19;;;;;;;6.88;4.32;;;8.60;99.90;;;;;;5075262;28;20371;-79
2023/10/26 05:45:45;;;;;;;5.93;3.63;;;8.70;99.90;;;;;;5074906;28;20323;-79
2023/10/26 05:48:11;;;;;;;4.75;3.30;;;8.70;99.90;;;;;;5072975;28;20029;-79
2023/10/26 05:50:41;;;;;;;6.40;3.33;;;8.70;99.90;;;;;;5072600;28;20028;-80
2023/10/26 05:53:11;;;;;;;7.13;3.03;;;8.70;99.90;;;;;;5073571;28;20133;-79
2023/10/26 05:55:39;;;;;;;3.42;3.13;;;8.70;99.90;;;;;;5055191;28;20028;-79
2023/10/26 05:58:05;;;;;;;5.25;2.55;;;8.70;99.90;;;;;;5073308;28;20145;-80
2023/10/26 06:00:31;;;;;;;5.45;3.28;;;8.80;99.90;;;;;;5072916;28;20086;-78
2023/10/26 06:02:58;;;;;;;5.82;3.13;;;8.70;99.90;;;;;;5075126;28;20072;-79
2023/10/26 06:05:24;;;;;;;4.45;2.40;;;8.80;99.90;;;;;;5072592;28;20405;-79
2023/10/26 06:07:50;;;;;;;6.80;3.25;;;8.80;99.90;;;;;;5072690;28;20029;-79
2023/10/26 06:10:16;;;;;;;8.05;3.28;;;8.90;99.90;;;;;;5072880;28;20459;-78
2023/10/26 06:12:41;;;;;;;8.13;3.45;;;8.90;99.90;;;;;;5071735;28;20040;-79
2023/10/26 06:15:08;;;;;;;5.30;3.20;;;8.90;99.90;;;;;;5072412;28;20028;-80
2023/10/26 06:17:34;;;;;;;3.83;2.40;;;8.80;99.90;;;;;;5071938;28;20103;-79
2023/10/26 06:19:59;;;;;;;4.18;2.97;;;8.90;99.90;;;;;;5072458;28;20103;-78
2023/10/26 06:22:25;;;;;;;4.60;2.70;;;9.00;99.90;;;;;;5053901;28;20030;-80
2023/10/26 06:24:51;;;;;;;6.35;2.50;;;9.00;99.90;;;;;;5072261;28;20119;-77
2023/10/26 06:27:17;;;;;;;5.03;2.53;;;9.00;99.90;;;;;;5053998;28;20103;-77
2023/10/26 06:29:44;;;;;;;4.85;3.00;;;9.10;99.90;;;;;;5071522;28;20119;-80
2023/10/26 06:32:11;;;;;;;8.57;3.58;;;9.10;99.90;;;;;;5071538;28;20356;-79
2023/10/26 06:34:37;;;;;;;6.15;3.17;;;9.20;99.90;;;;;;5071462;28;20499;-79
2023/10/26 06:37:03;;;;;;;5.45;3.08;;;9.10;99.90;;;;;;5072114;28;20056;-79
2023/10/26 06:39:29;;;;;;;5.90;3.05;;;9.20;99.90;;;;;;5071868;28;20032;-79
2023/10/26 06:41:56;;;;;;;4.97;2.80;;;9.00;99.90;;;;;;5072358;28;20153;-80
2023/10/26 06:44:22;;;;;;;5.70;3.20;;;9.10;99.90;;;;;;5071447;28;20183;-80
2023/10/26 06:46:48;;;;;;;6.75;3.33;;;9.10;99.90;;;;;;5071606;28;20222;-78
2023/10/26 06:49:13;;;;;;;4.40;2.80;;;9.10;99.90;;;;;;5071326;28;20187;-79
2023/10/26 06:51:39;;;;;;;4.32;2.70;;;9.10;99.90;;;;;;5071142;28;20032;-79
2023/10/26 06:54:05;;;;;;;2.72;2.45;;;9.10;99.90;;;;;;5071369;28;20028;-79
2023/10/26 06:56:30;;;;;;;4.30;2.80;;;9.00;99.90;;;;;;5070976;28;20075;-80
2023/10/26 06:58:56;;;;;;;5.45;2.67;;;9.00;99.90;;;;;;5052874;28;20056;-79
2023/10/26 07:01:22;;;;;;;8.02;2.60;;;8.90;99.90;;;;;;5071599;28;20115;-80
2023/10/26 07:03:50;;;;;;;4.55;2.70;;;9.00;99.90;;;;;;5053765;28;20481;-80
2023/10/26 07:06:16;;;;;;;5.15;2.42;;;8.90;99.90;;;;;;5071198;28;20500;-79
2023/10/26 07:08:41;;;;;;;5.93;2.78;;;8.90;99.90;;;;;;5053644;28;20029;-79
2023/10/26 07:11:08;;;;;;;5.05;2.83;;;8.90;99.90;;;;;;5071341;28;20032;-78
2023/10/26 07:13:34;;;;;;;7.15;3.20;;;8.80;99.90;;;;;;5070978;28;20355;-78
2023/10/26 07:16:00;;;;;;;4.40;2.88;;;8.80;99.90;;;;;;5071589;28;20032;-78
2023/10/26 07:18:29;;;;;;;7.65;2.85;;;8.80;99.90;;;;;;5073137;28;20111;-80
2023/10/26 07:20:56;;;;;;;5.68;2.88;;;8.80;99.90;;;;;;5071745;28;20032;-79
2023/10/26 07:23:22;;;;;;;4.85;2.55;;;8.70;99.90;;;;;;5071297;28;20024;-80
2023/10/26 07:25:48;;;;;;;4.80;2.70;;;8.70;99.90;;;;;;5071325;28;20301;-78
2023/10/26 07:28:14;;;;;;;5.78;3.63;;;8.80;99.90;;;;;;5053121;28;20035;-78
2023/10/26 07:30:41;;;;;;;3.58;2.70;;;8.70;99.90;;;;;;5070561;28;20085;-79
2023/10/26 07:33:07;;;;;;;6.85;2.97;;;8.80;99.90;;;;;;5053426;28;20044;-79
2023/10/26 07:35:40;;;;;;;4.45;3.22;;;8.80;99.90;;;;;;5070727;28;20024;-79
2023/10/26 07:38:09;;;;;;;7.65;3.72;;;8.80;99.90;;;;;;5071259;28;20104;-79
2023/10/26 07:40:37;;;;;;;5.38;3.85;;;8.90;99.90;;;;;;5071384;28;20104;-77
2023/10/26 07:43:04;;;;;;;5.75;3.15;;;8.90;99.90;;;;;;5071112;28;20059;-78
2023/10/26 07:45:30;;;;;;;7.28;3.55;;;9.00;99.90;;;;;;5070308;28;20100;-79
2023/10/26 07:47:58;;;;;;;5.03;3.72;;;9.00;99.90;;;;;;5071922;28;20040;-78
2023/10/26 07:50:24;;;;;;;5.63;3.55;;;9.20;99.90;;;;;;5053029;28;20416;-79
2023/10/26 07:52:50;;;;;;;6.47;3.70;;;9.10;99.90;;;;;;5070941;28;20094;-78
2023/10/26 07:55:17;;;;;;;4.38;3.08;;;9.20;99.90;;;;;;5071040;28;20024;-78
2023/10/26 07:57:42;;;;;;;7.03;3.47;;;9.30;99.90;;;;;;5052415;28;20076;-78
2023/10/26 08:00:11;;;;;;;5.15;3.17;;;9.40;99.90;;;;;;5052851;28;20066;-79
2023/10/26 08:02:37;;;;;;;5.97;3.50;;;9.40;99.90;;;;;;5070018;28;20025;-78
2023/10/26 08:05:03;;;;;;;5.93;3.20;;;9.40;99.90;;;;;;5070592;28;20036;-77
2023/10/26 08:07:29;;;;;;;8.15;3.75;;;9.40;99.90;;;;;;5070023;28;20036;-80
2023/10/26 08:09:56;;;;;;;7.20;3.17;;;9.30;99.90;;;;;;5070242;28;20440;-78
2023/10/26 08:12:23;;;;;;;8.32;3.65;;;9.40;99.90;;;;;;5070561;28;20125;-79
2023/10/26 08:14:51;;;;;;;7.40;3.60;;;9.50;99.90;;;;;;5070947;28;20174;-80
2023/10/26 08:17:17;;;;;;;7.82;3.72;;;9.50;99.90;;;;;;5070282;28;20039;-80
2023/10/26 08:19:42;;;;;;;6.60;4.03;;;9.60;99.90;;;;;;5069977;28;20028;-80
2023/10/26 08:22:10;;;;;;;6.25;3.53;;;9.70;99.90;;;;;;5070354;28;20024;-79
2023/10/26 08:24:36;;;;;;;5.30;2.70;;;9.70;99.90;;;;;;5069637;28;20021;-80
2023/10/26 08:27:02;;;;;;;7.47;3.80;;;9.60;99.90;;;;;;5070231;28;20522;-80
2023/10/26 08:29:28;;;;;;;6.72;3.40;;;9.80;99.90;;;;;;5069854;28;20443;-80
2023/10/26 08:31:56;;;;;;;3.90;3.28;;;9.70;99.90;;;;;;5070486;28;20037;-80
2023/10/26 08:34:22;;;;;;;7.68;4.00;;;9.80;99.90;;;;;;5070590;28;20439;-79
2023/10/26 08:36:47;;;;;;;7.20;3.80;;;9.90;99.90;;;;;;5070349;28;20088;-80
2023/10/26 08:39:13;;;;;;;7.07;4.05;;;9.90;99.90;;;;;;5071201;28;20104;-80
2023/10/26 08:41:46;;;;;;;7.07;3.63;;;10.00;99.90;;;;;;5070178;28;20089;-80
2023/10/26 08:44:12;;;;;;;7.68;3.95;;;10.00;99.90;;;;;;5070440;28;20028;-79
2023/10/26 08:46:39;;;;;;;6.25;3.78;;;10.00;99.90;;;;;;5051699;28;20028;-80
2023/10/26 08:49:08;;;;;;;5.18;3.50;;;10.10;99.90;;;;;;5070574;28;20021;-80
2023/10/26 08:51:34;;;;;;;6.35;3.70;;;10.20;99.90;;;;;;5071785;28;20062;-79
2023/10/26 08:54:00;;;;;;;6.20;3.20;;;10.10;99.90;;;;;;5072853;28;20101;-80
2023/10/26 08:56:27;;;;;;;5.10;3.42;;;10.10;99.90;;;;;;5057404;28;20060;-79
2023/10/26 08:58:56;;;;;;;4.63;3.08;;;10.20;99.90;;;;;;5056305;28;20051;-79
2023/10/26 09:01:22;;;;;;;4.15;2.80;;;10.10;99.90;;;;;;5081301;28;20062;-78
2023/10/26 09:03:47;;;;;;;8.18;3.50;;;10.10;99.90;;;;;;5064223;28;20028;-79
2023/10/26 09:06:13;;;;;;;6.57;3.35;;;10.00;99.90;;;;;;5075092;28;20025;-79
2023/10/26 09:08:39;;;;;;;8.00;3.80;;;9.90;99.90;;;;;;5074310;28;20355;-79
2023/10/26 09:11:25;;;;;;;8.75;4.50;;;9.90;99.90;;;;;;5074345;28;20419;-79
2023/10/26 09:13:52;;;;;;;10.63;4.35;;;10.00;99.90;;;;;;5073404;28;20040;-79
2023/10/26 09:16:18;;;;;;;7.72;4.90;;;9.90;99.90;;;;;;5073797;28;20059;-79
2023/10/26 09:18:50;;;;;;;8.23;4.72;;;9.80;99.90;;;;;;5072888;28;20424;-80
2023/10/26 09:21:16;;;;;;;8.30;4.82;;;9.90;99.90;;;;;;5073358;28;20024;-79
2023/10/26 09:23:43;;;;;;;6.57;4.60;;;9.90;99.90;;;;;;5054502;28;20077;-79
2023/10/26 09:26:10;;;;;;;10.73;6.75;;;10.00;99.90;;;;;;5073771;28;20077;-79
2023/10/26 09:28:51;;;;;;;9.52;5.45;;;10.00;99.90;;;;;;5054673;28;20028;-79
2023/10/26 09:31:17;;;;;;;9.93;5.78;;;10.00;99.90;;;;;;5072972;28;20035;-80
2023/10/26 09:33:44;;;;;;;9.13;5.75;;;10.10;99.90;;;;;;5072753;28;20171;-80
2023/10/26 09:36:14;;;;;;;6.88;4.80;;;10.10;99.90;;;;;;5073245;28;20467;-80
2023/10/26 09:38:40;;;;;;;8.38;4.70;;;10.10;99.90;;;;;;5072742;28;20490;-79
2023/10/26 09:41:15;;;;;;;6.85;4.65;;;10.30;99.90;;;;;;5055210;28;20032;-79
2023/10/26 09:43:41;;;;;;;13.90;6.70;;;10.40;99.90;;;;;;5072582;28;20033;-78
2023/10/26 09:46:08;;;;;;;10.15;5.55;;;10.50;99.90;;;;;;5073818;28;20113;-79
2023/10/26 09:48:34;;;;;;;13.43;7.45;;;10.60;99.90;;;;;;5072738;28;20025;-79
2023/10/26 09:51:01;;;;;;;10.32;6.05;;;10.70;99.90;;;;;;5073610;28;20097;-80
2023/10/26 09:53:38;;;;;;;9.80;6.32;;;10.80;99.90;;;;;;5074374;28;20032;-79
2023/10/26 09:56:04;;;;;;;13.80;5.38;;;10.90;99.90;;;;;;5073340;28;20067;-79
2023/10/26 09:58:42;;;;;;;9.30;5.35;;;10.90;99.90;;;;;;5073272;28;20068;-79
2023/10/26 10:01:33;;;;;;;11.38;5.53;;;11.00;99.90;;;;;;5074132;28;20458;-78
2023/10/26 10:04:00;;;;;;;6.65;4.85;;;11.20;99.90;;;;;;5074384;28;20025;-77
2023/10/26 10:06:50;;;;;;;9.25;5.50;;;11.20;99.90;;;;;;5055373;28;20051;-79
2023/10/26 10:09:23;;;;;;;9.60;5.70;;;11.30;99.90;;;;;;5073951;28;20033;-79
2023/10/26 10:12:04;;;;;;;8.02;5.65;;;11.40;99.90;;;;;;5073810;28;20121;-79
2023/10/26 10:15:03;;;;;;;8.45;5.22;;;11.50;99.90;;;;;;5055275;28;20150;-79
2023/10/26 10:17:44;;;;;;;7.75;4.57;;;11.50;99.90;;;;;;5065522;28;20037;-79
2023/10/26 10:20:16;;;;;;;16.02;6.60;;;11.60;99.90;;;;;;5073995;28;20148;-79
2023/10/26 10:22:47;;;;;;;12.77;5.35;;;11.70;99.90;;;;;;5073181;28;20468;-80
2023/10/26 10:25:17;;;;;;;10.20;4.63;;;11.80;99.90;;;;;;5074161;28;20047;-79
2023/10/26 10:27:49;;;;;;;7.63;3.55;;;11.80;99.90;;;;;;5074511;28;20353;-80
2023/10/26 10:30:19;;;;;;;10.68;3.15;;;11.70;99.90;;;;;;5074353;28;20024;-80
2023/10/26 10:32:47;;;;;;;11.07;3.42;;;11.80;99.90;;;;;;5073152;28;20034;-80
2023/10/26 10:35:48;;;;;;;7.60;3.03;;;11.80;99.90;;;;;;5074162;28;20029;-79
2023/10/26 10:38:14;;;;;;;6.47;2.63;;;11.90;99.90;;;;;;5040942;28;20040;-80
2023/10/26 10:41:00;;;;;;;7.43;2.75;;;12.00;99.90;;;;;;5073962;28;20055;-80
2023/10/26 10:43:35;;;;;;;6.85;2.88;;;12.10;99.90;;;;;;5057001;28;20131;-79
2023/10/26 10:46:20;;;;;;;5.57;3.17;;;12.20;99.90;;;;;;5073859;28;20032;-78
2023/10/26 10:49:03;;;;;;;9.25;3.25;;;12.30;99.90;;;;;;5074801;28;20035;-80
2023/10/26 10:51:49;;;;;;;;;;;12.40;99.90;;;;;;5074595;28;20116;-79
2023/10/26 10:54:17;;;;;;;7.80;2.60;;;12.50;99.90;;;;;;5072846;28;19908;-79
2023/10/26 10:56:46;;;;;;;10.55;2.70;;;12.60;99.90;;;;;;5073225;28;20336;-79
2023/10/26 10:59:25;;;;;;;7.85;2.40;;;12.60;99.90;;;;;;5073574;28;20043;-81
2023/10/26 11:02:06;;;;;;;5.32;1.98;;;12.70;99.90;;;;;;5071255;28;20067;-80
2023/10/26 11:04:31;;;;;;;6.45;2.17;;;12.90;99.90;;;;;;5072467;28;20032;-80
2023/10/26 11:06:57;;;;;;;6.25;2.05;;;13.00;99.90;;;;;;5072502;28;20550;-79
2023/10/26 11:09:46;;;;;;;6.40;2.35;;;13.10;99.90;;;;;;5073279;28;20486;-82
2023/10/26 11:12:12;;;;;;;6.13;2.25;;;13.10;99.90;;;;;;5072450;28;20058;-80
2023/10/26 11:14:51;;;;;;;8.77;2.60;;;13.20;99.90;;;;;;5053692;28;20136;-81
2023/10/26 11:17:22;;;;;;;8.35;2.42;;;13.20;99.90;;;;;;5070948;28;20033;-80
2023/10/26 11:19:49;;;;;;;8.13;2.28;;;13.20;99.90;;;;;;5071149;28;20051;-81
2023/10/26 11:22:15;;;;;;;10.18;2.30;;;13.20;99.90;;;;;;5072384;28;20025;-81
2023/10/26 11:24:42;;;;;;;7.90;1.80;;;13.30;99.90;;;;;;5072693;28;20032;-80
2023/10/26 11:27:16;;;;;;;5.32;1.70;;;13.40;99.90;;;;;;5073035;28;20033;-80
2023/10/26 11:30:02;;;;;;;9.13;2.67;;;13.40;99.90;;;;;;5073111;28;20059;-80
2023/10/26 11:32:29;;;;;;;8.05;2.08;;;13.50;99.90;;;;;;5054209;28;20614;-80
2023/10/26 11:35:09;;;;;;;4.82;1.65;;;13.50;99.90;;;;;;5071063;28;20024;-80
2023/10/26 11:37:48;;;;;;;7.10;1.90;;;13.60;99.90;;;;;;5071711;28;20595;-80
2023/10/26 11:40:15;;;;;;;5.68;1.45;;;13.60;99.90;;;;;;5072267;28;20202;-79
2023/10/26 11:43:00;;;;;;;4.72;1.60;;;13.70;99.90;;;;;;5071821;28;20040;-80
2023/10/26 11:45:27;;;;;;;5.88;1.88;;;13.70;99.90;;;;;;5073566;28;20378;-80
2023/10/26 11:47:57;;;;;;;8.38;2.20;;;13.70;99.90;;;;;;5072689;28;20040;-80
2023/10/26 11:50:31;;;;;;;5.55;1.83;;;13.60;99.90;;;;;;5151412;27;20127;-80
2023/10/26 11:52:59;;;;;;;7.70;2.15;;;13.60;99.90;;;;;;5128943;27;20028;-80
2023/10/26 11:55:26;;;;;;;10.18;2.50;;;13.60;99.90;;;;;;5130427;27;20093;-80
2023/10/26 11:57:55;;;;;;;5.45;1.58;;;13.60;99.90;;;;;;5130793;27;20118;-80
2023/10/26 12:00:22;;;;;;;8.27;2.00;;;13.60;99.90;;;;;;5128775;28;20027;-79
2023/10/26 12:02:47;;;;;;;7.18;1.73;;;13.60;99.90;;;;;;5130494;27;20450;-80
2023/10/26 12:05:15;;;;;;;6.97;1.85;;;13.50;99.90;;;;;;5129590;27;20055;-81
2023/10/26 12:07:45;;;;;;;4.15;1.60;;;13.60;99.90;;;;;;5128909;27;20051;-80
2023/10/26 12:10:12;;;;;;;6.53;1.90;;;13.60;99.90;;;;;;5129000;27;20088;-80
2023/10/26 12:12:38;;;;;;;11.02;2.88;;;13.70;99.90;;;;;;5128974;27;20047;-80
2023/10/26 12:15:05;;;;;;;7.55;2.67;;;13.80;99.90;;;;;;5130477;27;20457;-79
2023/10/26 12:17:31;;;;;;;7.82;1.90;;;13.90;99.90;;;;;;5130897;27;20103;-80
2023/10/26 12:19:57;;;;;;;5.50;2.22;;;14.00;99.90;;;;;;5129158;27;20110;-81
2023/10/26 12:22:23;;;;;;;4.88;1.90;;;14.10;99.90;;;;;;5129866;27;20023;-80
2023/10/26 12:24:48;;;;;;;8.80;2.20;;;14.20;99.90;;;;;;5129239;27;20035;-80
2023/10/26 12:27:16;;;;;;;4.88;1.60;;;14.30;99.90;;;;;;5128616;27;20456;-80
2023/10/26 12:29:45;;;;;;;4.70;1.60;;;14.30;99.90;;;;;;5128521;27;20171;-80
2023/10/26 12:32:11;;;;;;;4.00;1.90;;;14.40;99.90;;;;;;5128700;27;20444;-80
2023/10/26 12:34:37;;;;;;;8.63;1.73;;;14.40;99.90;;;;;;5129115;27;20121;-79
2023/10/26 12:37:04;;;;;;;8.63;2.28;;;14.50;99.90;;;;;;5128919;27;20027;-80
2023/10/26 12:39:30;;;;;;;3.72;1.23;;;14.50;99.90;;;;;;5129443;27;20057;-78
2023/10/26 12:41:55;;;;;;;5.72;1.73;;;14.60;99.90;;;;;;5130837;27;20024;-79
2023/10/26 12:44:21;;;;;;;3.30;1.60;;;14.60;99.90;;;;;;5130305;27;20034;-79
2023/10/26 12:46:54;;;;;;;2.05;0.80;;;14.70;99.90;;;;;;5129166;28;20036;-80
2023/10/26 12:49:23;;;;;;;1.85;1.10;;;14.80;99.90;;;;;;5121984;28;20177;-80
2023/10/26 12:51:49;;;;;;;3.35;0.88;;;14.90;99.90;;;;;;5107799;28;20449;-80
2023/10/26 12:54:15;;;;;;;1.38;0.60;;;14.90;99.90;;;;;;5109284;28;20032;-80